createdAt,value
2022-12-18T00:01:29.186Z,8.10
2022-12-18T00:03:57.594Z,6.72
2022-12-18T00:06:27.448Z,7.22
2022-12-18T00:08:57.912Z,7.72
2022-12-18T00:11:28.379Z,7.10
2022-12-18T00:13:58.070Z,6.78
2022-12-18T00:16:28.178Z,7.15
2022-12-18T00:18:57.515Z,6.90
2022-12-18T00:21:25.771Z,5.93
2022-12-18T00:23:53.662Z,6.32
2022-12-18T00:26:25.011Z,6.03
2022-12-18T00:29:18.561Z,6.32
2022-12-18T00:31:46.377Z,6.88
2022-12-18T00:34:14.569Z,7.28
2022-12-18T00:36:42.693Z,8.25
2022-12-18T00:39:13.165Z,7.28
2022-12-18T00:42:09.966Z,7.72
2022-12-18T00:44:39.043Z,6.75
2022-12-18T00:47:06.688Z,6.68
2022-12-18T00:49:34.533Z,6.68
2022-12-18T00:52:02.409Z,6.03
2022-12-18T00:54:30.098Z,7.45
2022-12-18T00:56:58.090Z,8.18
2022-12-18T00:59:27.261Z,8.27
2022-12-18T01:01:55.292Z,7.25
2022-12-18T01:04:23.046Z,8.05
2022-12-18T01:06:50.853Z,7.70
2022-12-18T01:09:18.660Z,8.32
2022-12-18T01:11:46.379Z,8.02
2022-12-18T01:14:14.117Z,7.95
2022-12-18T01:16:42.028Z,7.25
2022-12-18T01:19:10.058Z,7.70
2022-12-18T01:21:37.818Z,7.80
2022-12-18T01:24:06.360Z,7.50
2022-12-18T01:26:35.196Z,7.70
2022-12-18T01:29:02.964Z,7.38
2022-12-18T01:31:34.128Z,7.88
2022-12-18T01:34:06.551Z,7.18
2022-12-18T01:36:38.357Z,7.05
2022-12-18T01:39:13.954Z,8.23
2022-12-18T01:42:02.125Z,8.50
2022-12-18T01:44:55.525Z,8.38
2022-12-18T01:47:29.042Z,7.88
2022-12-18T01:49:59.610Z,7.50
2022-12-18T01:52:33.017Z,7.25
2022-12-18T01:55:02.951Z,7.57
2022-12-18T01:57:30.994Z,6.90
2022-12-18T02:00:02.949Z,6.10
2022-12-18T02:02:43.202Z,6.28
2022-12-18T02:05:13.994Z,6.18
2022-12-18T02:08:11.718Z,6.07
2022-12-18T02:11:05.906Z,5.00
2022-12-18T02:13:57.268Z,5.45
2022-12-18T02:16:44.760Z,5.25
2022-12-18T02:19:31.294Z,5.32
2022-12-18T02:22:17.292Z,5.30
2022-12-18T02:25:20.456Z,5.60
2022-12-18T02:27:50.520Z,5.28
2022-12-18T02:30:20.292Z,5.50
2022-12-18T02:32:53.784Z,4.80
2022-12-18T02:35:28.995Z,4.80
2022-12-18T02:38:00.021Z,4.13
2022-12-18T02:40:31.748Z,4.18
2022-12-18T02:43:12.499Z,4.22
2022-12-18T02:45:51.887Z,4.43
2022-12-18T02:48:33.978Z,4.45
2022-12-18T02:51:17.670Z,4.28
2022-12-18T02:53:57.684Z,4.75
2022-12-18T02:56:40.354Z,4.45
2022-12-18T02:59:20.050Z,4.40
2022-12-18T03:02:24.134Z,4.18
2022-12-18T03:05:02.347Z,3.75
2022-12-18T03:08:18.590Z,3.83
2022-12-18T03:10:55.400Z,4.10
2022-12-18T03:13:36.377Z,3.70
2022-12-18T03:16:09.421Z,4.20
2022-12-18T03:18:49.883Z,3.58
2022-12-18T03:21:22.914Z,3.13
2022-12-18T03:23:54.121Z,3.58
2022-12-18T03:26:27.739Z,3.53
2022-12-18T03:29:06.368Z,3.72
2022-12-18T03:31:36.275Z,3.45
2022-12-18T03:34:10.954Z,3.38
2022-12-18T03:36:45.086Z,3.22
2022-12-18T03:39:14.956Z,3.92
2022-12-18T03:42:22.725Z,4.28
2022-12-18T03:45:04.138Z,3.45
2022-12-18T03:47:51.368Z,3.72
2022-12-18T03:50:31.208Z,3.67
2022-12-18T03:53:17.790Z,3.80
2022-12-18T03:55:50.754Z,3.92
2022-12-18T03:58:26.633Z,3.40
2022-12-18T04:01:11.189Z,3.88
2022-12-18T04:03:42.866Z,3.40
2022-12-18T04:06:12.230Z,3.55
2022-12-18T04:08:42.714Z,3.45
2022-12-18T04:11:13.302Z,3.67
2022-12-18T04:13:43.716Z,3.67
2022-12-18T04:16:19.089Z,3.75
2022-12-18T04:18:48.049Z,3.40
2022-12-18T04:21:16.450Z,3.70
2022-12-18T04:23:44.539Z,3.72
2022-12-18T04:26:12.342Z,3.72
2022-12-18T04:29:02.690Z,3.42
2022-12-18T04:31:30.785Z,4.57
2022-12-18T04:33:59.188Z,3.85
2022-12-18T04:36:27.616Z,3.70
2022-12-18T04:38:56.633Z,4.25
2022-12-18T04:41:24.549Z,3.83
2022-12-18T04:43:54.177Z,3.70
2022-12-18T04:46:23.322Z,3.72
2022-12-18T04:48:51.194Z,3.55
2022-12-18T04:51:23.301Z,4.00
2022-12-18T04:53:55.037Z,3.95
2022-12-18T04:56:23.034Z,2.95
2022-12-18T04:58:51.262Z,3.67
2022-12-18T05:01:20.212Z,3.80
2022-12-18T05:03:48.369Z,3.53
2022-12-18T05:06:16.078Z,3.80
2022-12-18T05:08:43.835Z,3.58
2022-12-18T05:11:17.909Z,4.18
2022-12-18T05:13:46.706Z,4.10
2022-12-18T05:16:14.943Z,4.28
2022-12-18T05:18:43.144Z,3.63
2022-12-18T05:21:10.917Z,3.55
2022-12-18T05:23:39.056Z,3.55
2022-12-18T05:26:08.990Z,3.80
2022-12-18T05:28:37.522Z,3.95
2022-12-18T05:31:06.433Z,3.80
2022-12-18T05:33:36.107Z,4.00
2022-12-18T05:36:07.373Z,3.60
2022-12-18T05:38:38.139Z,3.40
2022-12-18T05:41:06.767Z,3.88
2022-12-18T05:43:40.246Z,4.10
2022-12-18T05:46:12.413Z,4.25
2022-12-18T05:48:40.144Z,10.38
2022-12-18T05:51:17.807Z,14.70
2022-12-18T05:53:46.548Z,15.25
2022-12-18T05:56:16.904Z,11.35
2022-12-18T05:58:46.845Z,8.50
2022-12-18T06:01:18.330Z,7.80
2022-12-18T06:03:47.439Z,6.97
2022-12-18T06:06:25.545Z,7.63
2022-12-18T06:08:54.784Z,6.32
2022-12-18T06:11:25.905Z,5.13
2022-12-18T06:13:59.310Z,5.38
2022-12-18T06:16:28.944Z,5.63
2022-12-18T06:19:02.367Z,5.53
2022-12-18T06:21:30.497Z,5.22
2022-12-18T06:23:59.590Z,5.45
2022-12-18T06:26:28.618Z,5.53
2022-12-18T06:28:58.598Z,5.38
2022-12-18T06:31:27.300Z,4.78
2022-12-18T06:33:55.319Z,5.15
2022-12-18T06:36:23.365Z,5.63
2022-12-18T06:38:51.072Z,5.50
2022-12-18T06:41:21.987Z,5.45
2022-12-18T06:43:50.255Z,5.20
2022-12-18T06:46:18.041Z,5.70
2022-12-18T06:48:50.080Z,4.75
2022-12-18T06:51:19.838Z,5.03
2022-12-18T06:53:47.938Z,5.30
2022-12-18T06:56:15.812Z,4.97
2022-12-18T06:58:43.834Z,5.07
2022-12-18T07:01:13.607Z,5.35
2022-12-18T07:03:43.005Z,5.07
2022-12-18T07:06:19.883Z,4.90
2022-12-18T07:08:48.964Z,5.20
2022-12-18T07:11:17.873Z,5.10
2022-12-18T07:13:46.704Z,5.22
2022-12-18T07:16:24.779Z,4.47
2022-12-18T07:18:55.818Z,6.72
2022-12-18T07:21:25.613Z,6.93
2022-12-18T07:23:53.892Z,6.13
2022-12-18T07:26:22.728Z,5.63
2022-12-18T07:28:51.027Z,6.00
2022-12-18T07:31:21.523Z,5.20
2022-12-18T07:33:50.837Z,5.57
2022-12-18T07:36:18.976Z,5.30
2022-12-18T07:38:50.734Z,5.15
2022-12-18T07:41:19.749Z,5.30
2022-12-18T07:43:48.415Z,6.63
2022-12-18T07:46:17.355Z,15.07
2022-12-18T07:48:49.301Z,14.63
2022-12-18T07:51:18.586Z,12.68
2022-12-18T07:53:46.323Z,10.27
2022-12-18T07:56:32.134Z,8.38
2022-12-18T07:59:00.238Z,7.47
2022-12-18T08:01:31.203Z,6.47
2022-12-18T08:03:59.843Z,6.30
2022-12-18T08:06:27.539Z,5.10
2022-12-18T08:08:57.036Z,11.48
2022-12-18T08:11:26.719Z,16.15
2022-12-18T08:13:55.281Z,19.17
2022-12-18T08:16:24.128Z,16.02
2022-12-18T08:18:54.055Z,8.35
2022-12-18T08:21:28.077Z,9.90
2022-12-18T08:23:58.276Z,9.52
2022-12-18T08:26:29.825Z,8.07
2022-12-18T08:28:59.050Z,7.85
2022-12-18T08:31:28.608Z,8.57
2022-12-18T08:33:57.847Z,8.68
2022-12-18T08:36:26.453Z,8.23
2022-12-18T08:38:55.299Z,7.22
2022-12-18T08:41:23.800Z,7.53
2022-12-18T08:44:10.742Z,8.05
2022-12-18T08:46:41.487Z,7.53
2022-12-18T08:49:11.021Z,8.70
2022-12-18T08:51:40.299Z,9.27
2022-12-18T08:54:10.641Z,8.68
2022-12-18T08:56:38.639Z,8.93
2022-12-18T08:59:06.475Z,7.97
2022-12-18T09:01:34.406Z,8.90
2022-12-18T09:04:03.420Z,8.02
2022-12-18T09:06:32.270Z,7.97
2022-12-18T09:09:01.133Z,8.30
2022-12-18T09:11:30.802Z,8.55
2022-12-18T09:14:00.537Z,8.68
2022-12-18T09:16:32.403Z,8.82
2022-12-18T09:19:01.515Z,9.23
2022-12-18T09:21:34.412Z,8.20
2022-12-18T09:24:06.945Z,8.18
2022-12-18T09:26:37.765Z,7.57
2022-12-18T09:29:08.305Z,7.25
2022-12-18T09:31:37.341Z,8.68
2022-12-18T09:34:07.082Z,7.38
2022-12-18T09:36:35.378Z,7.90
2022-12-18T09:39:08.108Z,7.65
2022-12-18T09:41:44.747Z,7.00
2022-12-18T09:44:44.448Z,8.52
2022-12-18T09:47:19.336Z,8.85
2022-12-18T09:49:50.727Z,10.85
2022-12-18T09:52:48.516Z,11.13
2022-12-18T09:55:38.855Z,12.48
2022-12-18T09:58:23.217Z,11.98
2022-12-18T10:00:53.480Z,10.88
2022-12-18T10:03:22.173Z,10.57
2022-12-18T10:06:09.324Z,9.93
2022-12-18T10:08:44.465Z,9.07
2022-12-18T10:11:30.424Z,8.70
2022-12-18T10:14:31.778Z,7.88
2022-12-18T10:16:59.386Z,7.75
2022-12-18T10:19:50.519Z,7.93
2022-12-18T10:22:53.737Z,8.23
2022-12-18T10:25:32.508Z,8.00
2022-12-18T10:28:11.719Z,8.10
2022-12-18T10:30:41.356Z,8.00
2022-12-18T10:33:16.576Z,7.93
2022-12-18T10:35:46.568Z,7.95
2022-12-18T10:38:14.161Z,9.43
2022-12-18T10:40:58.212Z,10.55
2022-12-18T10:43:30.694Z,10.32
2022-12-18T10:46:04.760Z,9.30
2022-12-18T10:48:34.417Z,9.48
2022-12-18T10:51:10.911Z,11.18
2022-12-18T10:53:44.003Z,10.30
2022-12-18T10:56:13.201Z,8.85
2022-12-18T10:58:41.717Z,9.80
2022-12-18T11:01:14.435Z,10.10
2022-12-18T11:04:03.365Z,11.20
2022-12-18T11:06:33.893Z,10.68
2022-12-18T11:09:12.301Z,9.40
2022-12-18T11:11:41.118Z,7.82
2022-12-18T11:14:24.254Z,7.57
2022-12-18T11:19:42.557Z,6.85
2022-12-18T11:22:33.447Z,6.32
2022-12-18T11:25:32.480Z,6.60
2022-12-18T11:28:06.977Z,6.43
2022-12-18T11:30:37.991Z,6.70
2022-12-18T11:33:05.767Z,7.95
2022-12-18T11:35:50.153Z,8.90
2022-12-18T11:38:27.312Z,7.93
2022-12-18T11:43:51.245Z,11.60
2022-12-18T11:46:28.568Z,9.77
2022-12-18T11:49:11.650Z,8.50
2022-12-18T11:52:19.764Z,6.43
2022-12-18T11:54:51.449Z,10.47
2022-12-18T11:57:47.248Z,9.93
2022-12-18T12:00:21.174Z,10.98
2022-12-18T12:03:19.819Z,11.63
2022-12-18T12:06:02.258Z,11.75
2022-12-18T12:08:48.768Z,10.60
2022-12-18T12:11:34.060Z,11.40
2022-12-18T12:14:01.872Z,11.60
2022-12-18T12:17:14.551Z,12.52
2022-12-18T12:19:48.584Z,12.93
2022-12-18T12:22:58.008Z,12.80
2022-12-18T12:25:39.282Z,15.05
2022-12-18T12:28:19.405Z,15.20
2022-12-18T12:30:57.520Z,12.32
2022-12-18T12:33:44.361Z,10.35
2022-12-18T12:36:21.400Z,9.80
2022-12-18T12:38:58.565Z,9.00
2022-12-18T12:44:23.273Z,7.90
2022-12-18T12:46:56.286Z,6.82
2022-12-18T12:49:29.090Z,7.63
2022-12-18T12:52:08.820Z,8.27
2022-12-18T12:54:37.771Z,11.20
2022-12-18T12:57:44.119Z,13.77
2022-12-18T13:00:18.098Z,11.50
2022-12-18T13:03:14.325Z,12.13
2022-12-18T13:05:47.851Z,12.10
2022-12-18T13:08:33.988Z,11.95
2022-12-18T13:11:22.413Z,14.38
2022-12-18T13:13:57.959Z,12.57
2022-12-18T13:16:28.608Z,13.45
2022-12-18T13:18:59.984Z,11.98
2022-12-18T13:21:34.723Z,14.20
2022-12-18T13:24:26.767Z,15.80
2022-12-18T13:26:55.332Z,15.90
2022-12-18T13:29:45.559Z,16.88
2022-12-18T13:32:26.639Z,14.65
2022-12-18T13:35:35.485Z,14.48
2022-12-18T13:38:27.231Z,13.80
2022-12-18T13:40:56.907Z,12.60
2022-12-18T13:43:46.519Z,17.20
2022-12-18T13:46:48.727Z,15.40
2022-12-18T13:49:45.539Z,12.90
2022-12-18T13:52:23.910Z,12.15
2022-12-18T13:55:19.393Z,10.18
2022-12-18T13:57:47.721Z,12.80
2022-12-18T14:00:26.464Z,12.15
2022-12-18T14:02:54.356Z,10.85
2022-12-18T14:05:23.819Z,10.13
2022-12-18T14:07:53.097Z,10.68
2022-12-18T14:13:12.561Z,13.65
2022-12-18T14:15:43.943Z,12.40
2022-12-18T14:18:30.689Z,12.98
2022-12-18T14:21:01.048Z,12.35
2022-12-18T14:23:41.375Z,11.90
2022-12-18T14:26:30.469Z,12.85
2022-12-18T14:29:21.665Z,10.60
2022-12-18T14:32:17.022Z,8.30
2022-12-18T14:34:51.127Z,10.07
2022-12-18T14:37:24.227Z,9.75
2022-12-18T14:40:10.548Z,9.73
2022-12-18T14:42:39.585Z,10.20
2022-12-18T14:45:40.984Z,9.63
2022-12-18T14:48:21.571Z,9.80
2022-12-18T14:51:20.210Z,12.93
2022-12-18T14:54:15.509Z,15.35
2022-12-18T14:56:49.884Z,28.55
2022-12-18T14:59:25.198Z,23.45
2022-12-18T15:02:09.855Z,18.10
2022-12-18T15:04:43.006Z,16.98
2022-12-18T15:07:12.508Z,13.38
2022-12-18T15:09:43.001Z,11.70
2022-12-18T15:12:35.425Z,9.93
2022-12-18T15:15:05.408Z,8.57
2022-12-18T15:17:34.270Z,7.90
2022-12-18T15:20:10.381Z,8.23
2022-12-18T15:22:39.733Z,7.28
2022-12-18T15:25:37.905Z,9.60
2022-12-18T15:28:19.865Z,7.82
2022-12-18T15:31:05.526Z,7.47
2022-12-18T15:33:55.380Z,7.35
2022-12-18T15:36:26.334Z,6.93
2022-12-18T15:39:04.676Z,10.13
2022-12-18T15:41:38.206Z,11.98
2022-12-18T15:44:26.534Z,11.73
2022-12-18T15:46:54.350Z,11.40
2022-12-18T15:49:22.168Z,9.30
2022-12-18T15:51:55.828Z,9.52
2022-12-18T15:54:44.007Z,8.32
2022-12-18T15:57:24.814Z,9.38
2022-12-18T15:59:54.534Z,9.07
2022-12-18T16:02:24.334Z,8.48
2022-12-18T16:04:53.406Z,8.15
2022-12-18T16:07:25.189Z,8.43
2022-12-18T16:09:53.688Z,9.43
2022-12-18T16:12:23.748Z,9.45
2022-12-18T16:14:52.114Z,7.80
2022-12-18T16:17:20.140Z,7.90
2022-12-18T16:19:48.025Z,10.50
2022-12-18T16:22:24.564Z,12.85
2022-12-18T16:24:54.054Z,12.70
2022-12-18T16:27:22.838Z,12.95
2022-12-18T16:29:51.680Z,12.45
2022-12-18T16:32:22.009Z,11.95
2022-12-18T16:34:51.369Z,11.48
2022-12-18T16:37:19.380Z,10.35
2022-12-18T16:39:47.571Z,10.50
2022-12-18T16:42:20.720Z,10.32
2022-12-18T16:44:50.665Z,9.32
2022-12-18T16:47:19.135Z,8.55
2022-12-18T16:49:47.162Z,9.32
2022-12-18T16:52:15.386Z,9.43
2022-12-18T16:54:43.257Z,9.27
2022-12-18T16:57:16.010Z,8.65
2022-12-18T16:59:44.023Z,8.88
2022-12-18T17:02:24.591Z,8.98
2022-12-18T17:04:57.303Z,12.68
2022-12-18T17:07:26.295Z,17.27
2022-12-18T17:09:54.437Z,24.90
2022-12-18T17:12:24.127Z,46.20
2022-12-18T17:14:51.916Z,52.30
2022-12-18T17:17:21.947Z,75.20
2022-12-18T17:19:51.732Z,73.05
2022-12-18T17:22:20.380Z,56.30
2022-12-18T17:24:48.341Z,46.97
2022-12-18T17:27:16.446Z,35.50
2022-12-18T17:29:47.735Z,33.40
2022-12-18T17:32:17.382Z,32.67
2022-12-18T17:34:45.423Z,34.10
2022-12-18T17:37:13.378Z,28.25
2022-12-18T17:39:42.165Z,29.55
2022-12-18T17:42:14.784Z,30.58
2022-12-18T17:44:44.359Z,28.40
2022-12-18T17:47:13.820Z,26.40
2022-12-18T17:49:41.657Z,28.20
2022-12-18T17:52:09.910Z,26.83
2022-12-18T17:54:39.998Z,24.20
2022-12-18T17:57:10.552Z,26.33
2022-12-18T17:59:38.682Z,25.02
2022-12-18T18:02:06.700Z,24.85
2022-12-18T18:04:36.145Z,21.58
2022-12-18T18:07:03.930Z,20.15
2022-12-18T18:09:33.348Z,17.33
2022-12-18T18:12:19.804Z,17.33
2022-12-18T18:14:47.888Z,15.10
2022-12-18T18:17:16.007Z,14.43
2022-12-18T18:19:46.773Z,13.40
2022-12-18T18:22:17.829Z,13.02
2022-12-18T18:24:47.116Z,16.83
2022-12-18T18:27:15.216Z,17.13
2022-12-18T18:29:43.438Z,18.27
2022-12-18T18:32:11.328Z,18.15
2022-12-18T18:34:41.281Z,16.38
2022-12-18T18:37:10.510Z,14.60
2022-12-18T18:39:38.580Z,13.05
2022-12-18T18:42:06.645Z,13.38
2022-12-18T18:44:34.427Z,12.85
2022-12-18T18:47:02.836Z,15.90
2022-12-18T18:49:34.888Z,14.63
2022-12-18T18:52:03.926Z,17.50
2022-12-18T18:54:31.768Z,17.23
2022-12-18T19:04:46.517Z,23.60
2022-12-18T19:07:24.327Z,20.27
2022-12-18T19:10:04.288Z,20.05
2022-12-18T19:12:52.686Z,17.40
2022-12-18T19:15:22.926Z,16.75
2022-12-18T19:17:50.961Z,18.10
2022-12-18T19:20:19.594Z,16.27
2022-12-18T19:22:55.217Z,14.18
2022-12-18T19:25:40.678Z,12.48
2022-12-18T19:28:15.344Z,12.80
2022-12-18T19:30:56.343Z,12.68
2022-12-18T19:36:12.429Z,11.18
2022-12-18T19:38:44.946Z,14.23
2022-12-18T19:41:15.726Z,15.57
2022-12-18T19:43:45.543Z,16.48
2022-12-18T19:46:16.330Z,12.60
2022-12-18T19:48:46.778Z,10.60
2022-12-18T19:51:18.185Z,10.63
2022-12-18T19:53:46.996Z,13.50
2022-12-18T19:56:21.331Z,12.25
2022-12-18T19:58:49.696Z,13.20
2022-12-18T20:01:19.021Z,11.82
2022-12-18T20:03:52.652Z,11.05
2022-12-18T20:06:31.604Z,11.52
2022-12-18T20:09:02.301Z,10.43
2022-12-18T20:11:31.209Z,10.23
2022-12-18T20:13:59.167Z,9.77
2022-12-18T20:16:27.095Z,11.82
2022-12-18T20:18:57.840Z,12.30
2022-12-18T20:21:26.439Z,16.60
2022-12-18T20:23:56.003Z,18.95
2022-12-18T20:26:25.012Z,16.95
2022-12-18T20:28:54.388Z,16.77
2022-12-18T20:31:23.025Z,15.98
2022-12-18T20:33:52.175Z,20.15
2022-12-18T20:36:23.367Z,18.63
2022-12-18T20:38:57.238Z,15.90
2022-12-18T20:41:35.035Z,12.45
2022-12-18T20:44:23.134Z,10.55
2022-12-18T20:46:57.028Z,9.43
2022-12-18T20:49:27.471Z,8.90
2022-12-18T20:51:57.335Z,8.35
2022-12-18T20:54:27.387Z,8.40
2022-12-18T20:56:58.345Z,8.05
2022-12-18T20:59:29.183Z,7.63
2022-12-18T21:01:57.174Z,8.07
2022-12-18T21:04:26.450Z,8.23
2022-12-18T21:07:02.103Z,10.30
2022-12-18T21:09:37.721Z,15.55
2022-12-18T21:12:40.317Z,17.70
2022-12-18T21:15:12.040Z,13.20
2022-12-18T21:17:44.605Z,11.98
2022-12-18T21:20:17.521Z,10.80
2022-12-18T21:22:47.150Z,10.52
2022-12-18T21:25:15.236Z,9.50
2022-12-18T21:27:43.169Z,9.07
2022-12-18T21:30:15.116Z,9.82
2022-12-18T21:32:44.264Z,9.88
2022-12-18T21:35:12.082Z,10.38
2022-12-18T21:37:40.082Z,18.55
2022-12-18T21:40:08.814Z,20.83
2022-12-18T21:42:55.265Z,18.42
2022-12-18T21:45:23.106Z,17.13
2022-12-18T21:47:51.012Z,16.27
2022-12-18T21:50:18.855Z,15.43
2022-12-18T21:52:46.579Z,15.25
2022-12-18T21:55:14.292Z,13.30
2022-12-18T21:57:42.187Z,12.98
2022-12-18T22:00:18.174Z,11.38
2022-12-18T22:05:17.324Z,10.93
2022-12-18T22:07:46.265Z,10.20
2022-12-18T22:10:14.127Z,10.68
2022-12-18T22:12:43.940Z,10.63
2022-12-18T22:15:18.313Z,10.00
2022-12-18T22:20:30.037Z,9.98
2022-12-18T22:22:58.460Z,9.27
2022-12-18T22:25:26.572Z,10.23
2022-12-18T22:28:12.851Z,10.48
2022-12-18T22:30:40.784Z,10.73
2022-12-18T22:33:08.651Z,10.45
2022-12-18T22:35:36.768Z,9.93
2022-12-18T22:38:05.022Z,10.35
2022-12-18T22:40:32.718Z,9.90
2022-12-18T22:43:00.410Z,8.32
2022-12-18T22:45:28.242Z,8.48
2022-12-18T22:47:56.284Z,8.40
2022-12-18T22:50:24.180Z,7.93
2022-12-18T22:52:51.967Z,7.78
2022-12-18T22:55:19.960Z,7.68
2022-12-18T22:57:48.698Z,7.53
2022-12-18T23:00:19.886Z,7.88
2022-12-18T23:03:00.351Z,7.03
2022-12-18T23:05:30.363Z,7.07
2022-12-18T23:07:59.257Z,7.00
2022-12-18T23:10:27.770Z,7.28
2022-12-18T23:12:55.611Z,5.60
2022-12-18T23:15:27.854Z,6.60
2022-12-18T23:17:58.210Z,6.07
2022-12-18T23:20:27.530Z,5.90
2022-12-18T23:22:55.466Z,4.90
2022-12-18T23:25:25.089Z,5.10
2022-12-18T23:27:53.045Z,5.10
2022-12-18T23:30:21.161Z,4.60
2022-12-18T23:32:48.911Z,4.57
2022-12-18T23:35:17.626Z,4.57
2022-12-18T23:37:58.796Z,5.00
2022-12-18T23:40:29.015Z,5.40
2022-12-18T23:42:57.032Z,5.80
2022-12-18T23:45:24.797Z,5.03
2022-12-18T23:47:52.444Z,5.03
2022-12-18T23:50:23.779Z,5.53
2022-12-18T23:52:57.450Z,4.95
2022-12-18T23:55:32.968Z,4.68
2022-12-18T23:58:00.777Z,4.38
